createdAt,value
2023-10-03T00:02:43.813Z,16.40434
2023-10-03T00:07:46.456Z,16.60984
2023-10-03T00:12:47.859Z,16.2449
2023-10-03T00:17:49.513Z,16.72609
2023-10-03T00:22:50.924Z,16.87315
2023-10-03T00:27:52.385Z,16.54823
2023-10-03T00:32:53.976Z,16.08323
2023-10-03T00:37:55.516Z,16.02066
2023-10-03T00:42:57.476Z,15.96063
2023-10-03T00:47:58.927Z,14.72224
2023-10-03T00:53:00.348Z,15.26314
2023-10-03T00:58:01.777Z,15.596
2023-10-03T01:03:03.502Z,15.78943
2023-10-03T01:08:05.943Z,15.38066
2023-10-03T01:13:07.692Z,15.68335
2023-10-03T01:18:09.252Z,15.42862
2023-10-03T01:23:10.815Z,15.16722
2023-10-03T01:28:12.213Z,15.23741
2023-10-03T01:33:13.741Z,14.84611
2023-10-03T01:38:15.323Z,14.79751
2023-10-03T01:43:16.966Z,14.47736
2023-10-03T01:48:18.529Z,14.29378
2023-10-03T01:53:20.128Z,13.65029
2023-10-03T01:58:21.602Z,14.12576
2023-10-03T02:03:23.106Z,14.40939
2023-10-03T02:08:24.846Z,14.06255
2023-10-03T02:13:26.360Z,14.1121
2023-10-03T02:18:27.889Z,13.9533
2023-10-03T02:23:29.476Z,13.74494
2023-10-03T02:28:32.176Z,13.53786
2023-10-03T02:33:35.702Z,13.64902
2023-10-03T02:38:37.399Z,13.56295
2023-10-03T02:43:38.988Z,13.37556
2023-10-03T02:48:40.561Z,13.40129
2023-10-03T02:53:42.079Z,13.35587
2023-10-03T02:58:43.558Z,13.47529
2023-10-03T03:03:45.044Z,13.30855
2023-10-03T03:08:46.861Z,13.00586
2023-10-03T03:13:48.452Z,12.70509
2023-10-03T03:18:49.815Z,12.84134
2023-10-03T03:23:51.251Z,12.65427
2023-10-03T03:28:52.839Z,12.8045
2023-10-03T03:33:54.867Z,12.60377
2023-10-03T03:38:56.498Z,12.54406
2023-10-03T03:43:57.997Z,12.34937
2023-10-03T03:48:59.708Z,12.40273
2023-10-03T03:54:01.413Z,12.50436
2023-10-03T03:59:03.177Z,12.17691
2023-10-03T04:04:04.831Z,12.30808
2023-10-03T04:09:09.216Z,12.50658
2023-10-03T04:14:11.348Z,12.15118
2023-10-03T04:19:12.833Z,12.22963
2023-10-03T04:24:14.329Z,12.34778
2023-10-03T04:29:16.780Z,12.37573
2023-10-03T04:34:18.419Z,12.50849
2023-10-03T04:39:19.976Z,12.3986
2023-10-03T04:44:21.377Z,12.35127
2023-10-03T04:49:22.790Z,12.17437
2023-10-03T04:54:24.416Z,11.35082
2023-10-03T04:59:25.934Z,11.20568
2023-10-03T05:04:27.353Z,11.11548
2023-10-03T05:09:28.765Z,11.32128
2023-10-03T05:14:30.468Z,11.61634
2023-10-03T05:19:31.919Z,11.67255
2023-10-03T05:24:33.294Z,11.82183
2023-10-03T05:29:34.913Z,12.03018
2023-10-03T05:34:36.331Z,11.95236
2023-10-03T05:39:37.710Z,11.95713
2023-10-03T05:44:39.137Z,11.97491
2023-10-03T05:49:41.185Z,11.92092
2023-10-03T05:54:42.609Z,12.10704
2023-10-03T05:59:44.056Z,12.25218
2023-10-03T06:04:45.919Z,12.25282
2023-10-03T06:09:47.326Z,12.33095
2023-10-03T06:14:48.958Z,12.28648
2023-10-03T06:19:50.394Z,12.29411
2023-10-03T06:24:51.785Z,11.94093
2023-10-03T06:29:53.211Z,12.03812
2023-10-03T06:34:54.669Z,11.83929
2023-10-03T06:39:56.039Z,11.95871
2023-10-03T06:44:57.464Z,11.78562
2023-10-03T06:49:58.868Z,11.83548
2023-10-03T06:55:00.318Z,11.35368
2023-10-03T07:00:01.990Z,11.06625
2023-10-03T07:05:03.668Z,10.97859
2023-10-03T07:10:05.463Z,11.06847
2023-10-03T07:15:06.852Z,10.74102
2023-10-03T07:20:08.488Z,10.70831
2023-10-03T07:25:09.875Z,11.22124
2023-10-03T07:30:11.733Z,11.42514
2023-10-03T07:35:13.333Z,11.62999
2023-10-03T07:40:14.844Z,11.62142
2023-10-03T07:45:16.237Z,11.6157
2023-10-03T07:50:17.625Z,11.65445
2023-10-03T07:55:19.096Z,11.5147
2023-10-03T08:00:21.281Z,11.35463
2023-10-03T08:05:22.750Z,11.51057
2023-10-03T08:10:24.173Z,11.27301
2023-10-03T08:15:25.792Z,11.77292
2023-10-03T08:20:28.046Z,11.59887
2023-10-03T08:25:29.544Z,11.77355
2023-10-03T08:30:31.230Z,11.97364
2023-10-03T08:35:32.979Z,11.77577
2023-10-03T08:40:34.512Z,11.90345
2023-10-03T08:45:36.086Z,11.93521
2023-10-03T08:50:37.694Z,11.95109
2023-10-03T08:55:39.655Z,11.77704
2023-10-03T09:00:41.344Z,11.83517
2023-10-03T09:05:42.981Z,11.80563
2023-10-03T09:10:44.568Z,11.82977
2023-10-03T09:15:45.992Z,11.67827
2023-10-03T09:20:47.473Z,11.76688
2023-10-03T09:25:48.905Z,11.64206
2023-10-03T09:30:50.293Z,11.46547
2023-10-03T09:35:51.715Z,11.40386
2023-10-03T09:40:53.126Z,11.7456
2023-10-03T09:45:54.831Z,11.64143
2023-10-03T09:50:56.866Z,11.86026
2023-10-03T09:55:58.290Z,11.86121
2023-10-03T10:00:59.774Z,11.86693
2023-10-03T10:06:01.530Z,11.88312
2023-10-03T10:11:03.265Z,11.74433
2023-10-03T10:16:04.900Z,11.83421
2023-10-03T10:21:07.005Z,11.94569
2023-10-03T10:26:08.361Z,11.86851
2023-10-03T10:31:09.809Z,11.88408
2023-10-03T10:36:11.280Z,11.85962
2023-10-03T10:41:12.666Z,11.89392
2023-10-03T10:46:14.153Z,11.91107
2023-10-03T10:51:15.612Z,11.80436
2023-10-03T10:56:17.306Z,11.96443
2023-10-03T11:01:18.970Z,11.95331
2023-10-03T11:06:20.355Z,11.97078
2023-10-03T11:11:21.914Z,11.9838
2023-10-03T11:16:23.332Z,11.81738
2023-10-03T11:21:24.773Z,11.85708
2023-10-03T11:26:26.174Z,11.89742
2023-10-03T11:31:27.648Z,11.74465
2023-10-03T11:36:29.095Z,11.86248
2023-10-03T11:41:30.553Z,11.69923
2023-10-03T11:46:32.097Z,11.76625
2023-10-03T11:51:33.521Z,11.74592
2023-10-03T11:56:35.120Z,11.73163
2023-10-03T12:01:36.710Z,11.68081
2023-10-03T12:06:38.425Z,11.7329
2023-10-03T12:11:39.813Z,11.61888
2023-10-03T12:16:41.164Z,11.87931
2023-10-03T12:21:42.619Z,11.79292
2023-10-03T12:26:44.050Z,11.83548
2023-10-03T12:31:45.618Z,11.83834
2023-10-03T12:36:47.141Z,11.54932
2023-10-03T12:41:48.673Z,11.77704
2023-10-03T12:46:50.086Z,11.48898
2023-10-03T12:51:51.535Z,11.61951
2023-10-03T12:56:52.914Z,11.60998
2023-10-03T13:01:54.360Z,11.54742
2023-10-03T13:06:55.840Z,11.62491
2023-10-03T13:11:57.321Z,11.86057
2023-10-03T13:16:58.812Z,11.66588
2023-10-03T13:22:00.453Z,11.65794
2023-10-03T13:27:02.131Z,11.4064
2023-10-03T13:32:03.786Z,11.74973
2023-10-03T13:37:05.330Z,11.78213
2023-10-03T13:42:06.948Z,11.86756
2023-10-03T13:47:08.425Z,12.02096
2023-10-03T13:52:09.858Z,12.1407
2023-10-03T13:57:11.429Z,12.30332
2023-10-03T14:02:13.164Z,12.54787
2023-10-03T14:07:14.712Z,12.52596
2023-10-03T14:12:16.282Z,12.48975
2023-10-03T14:17:17.806Z,12.51294
2023-10-03T14:22:19.230Z,12.653
2023-10-03T14:27:20.906Z,12.42623
2023-10-03T14:32:22.421Z,12.95251
2023-10-03T14:37:23.853Z,13.16499
2023-10-03T14:42:25.299Z,13.11893
2023-10-03T14:47:26.740Z,12.65618
2023-10-03T14:52:28.304Z,12.81847
2023-10-03T14:57:29.806Z,12.18675
2023-10-03T15:02:31.370Z,13.02079
2023-10-03T15:07:32.955Z,13.21295
2023-10-03T15:12:34.367Z,13.58169
2023-10-03T15:17:35.817Z,13.52484
2023-10-03T15:22:37.448Z,13.72462
2023-10-03T15:27:38.981Z,13.93329
2023-10-03T15:32:40.819Z,13.865
2023-10-03T15:37:42.485Z,13.8723
2023-10-03T15:42:43.992Z,13.91296
2023-10-03T15:47:45.691Z,14.00634
2023-10-03T15:52:47.174Z,13.87072
2023-10-03T15:57:48.687Z,14.00983
2023-10-03T16:02:50.228Z,14.17944
2023-10-03T16:07:51.716Z,14.15974
2023-10-03T16:12:53.299Z,14.24804
2023-10-03T16:17:55.213Z,14.77909
2023-10-03T16:22:56.684Z,15.32571
2023-10-03T16:27:58.451Z,15.68017
2023-10-03T16:33:00.193Z,16.5171
2023-10-03T16:38:01.645Z,15.99366
2023-10-03T16:43:03.104Z,14.84484
2023-10-03T16:48:04.659Z,15.23963
2023-10-03T16:53:06.073Z,15.98223
2023-10-03T16:58:07.465Z,15.94221
2023-10-03T17:03:09.229Z,17.29877
2023-10-03T17:08:10.820Z,17.25176
2023-10-03T17:13:12.338Z,17.584
2023-10-03T17:18:14.106Z,18.8977
2023-10-03T17:23:15.723Z,20.02784
2023-10-03T17:28:17.484Z,20.90515
2023-10-03T17:33:19.004Z,21.21897
2023-10-03T17:38:20.526Z,22.81988
2023-10-03T17:43:21.890Z,21.51723
2023-10-03T17:48:23.657Z,18.48733
2023-10-03T17:53:25.133Z,19.04604
2023-10-03T17:58:26.626Z,20.89085
2023-10-03T18:03:28.185Z,21.66589
2023-10-03T18:08:29.637Z,21.52486
2023-10-03T18:13:31.003Z,20.92643
2023-10-03T18:18:32.560Z,21.63508
2023-10-03T18:23:34.255Z,21.0106
2023-10-03T18:28:35.735Z,19.87061
2023-10-03T18:33:37.108Z,19.02158
2023-10-03T18:38:38.771Z,19.09654
2023-10-03T18:43:40.218Z,18.58484
2023-10-03T18:48:42.144Z,18.494
2023-10-03T18:53:43.617Z,18.23831
2023-10-03T18:58:45.103Z,18.21385
2023-10-03T19:03:46.667Z,17.46234
2023-10-03T19:08:48.345Z,18.06583
2023-10-03T19:13:49.738Z,18.37489
2023-10-03T19:18:51.142Z,20.19745
2023-10-03T19:23:52.641Z,19.67495
2023-10-03T19:28:54.235Z,19.54567
2023-10-03T19:33:56.519Z,21.05475
2023-10-03T19:38:58.004Z,21.90444
2023-10-03T19:43:59.400Z,21.09986
2023-10-03T19:49:00.911Z,21.75038
2023-10-03T19:54:02.389Z,21.124
2023-10-03T19:59:03.946Z,21.84599
2023-10-03T20:04:05.461Z,21.9505
2023-10-03T20:09:07.200Z,21.90253
2023-10-03T20:14:08.794Z,21.95685
2023-10-03T20:19:10.402Z,22.04039
2023-10-03T20:24:11.906Z,20.1028
2023-10-03T20:29:13.721Z,19.85663
2023-10-03T20:34:16.052Z,20.85337
2023-10-03T20:39:17.577Z,21.36922
2023-10-03T20:44:21.553Z,21.22247
2023-10-03T20:49:23.124Z,20.92484
2023-10-03T20:54:24.601Z,19.67304
2023-10-03T20:59:26.015Z,20.16918
2023-10-03T21:04:27.434Z,20.48523
2023-10-03T21:09:28.808Z,19.50152
2023-10-03T21:14:30.385Z,19.65589
2023-10-03T21:19:31.850Z,20.7279
2023-10-03T21:24:33.370Z,20.69487
2023-10-03T21:29:34.817Z,20.87592
2023-10-03T21:34:36.350Z,21.62206
2023-10-03T21:39:37.867Z,20.35564
2023-10-03T21:44:39.497Z,21.36826
2023-10-03T21:49:40.840Z,21.64238
2023-10-03T21:54:42.308Z,21.76182
2023-10-03T21:59:43.768Z,21.2231
2023-10-03T22:04:45.137Z,21.04332
2023-10-03T22:09:46.497Z,21.61983
2023-10-03T22:14:48.173Z,21.33745
2023-10-03T22:19:49.637Z,21.65001
2023-10-03T22:24:51.091Z,21.69352
2023-10-03T22:29:52.535Z,22.28688
2023-10-03T22:34:54.113Z,22.4889
2023-10-03T22:39:55.486Z,22.10805
2023-10-03T22:44:56.949Z,22.17284
2023-10-03T22:49:58.364Z,21.94033
2023-10-03T22:55:00.383Z,22.1487
2023-10-03T23:00:01.818Z,22.20937
2023-10-03T23:05:03.293Z,21.73259
2023-10-03T23:10:04.774Z,22.23955
2023-10-03T23:15:06.121Z,22.06548
2023-10-03T23:20:07.512Z,22.10995
2023-10-03T23:25:08.926Z,21.7939
2023-10-03T23:30:10.366Z,21.80057
2023-10-03T23:35:12.131Z,21.65287
2023-10-03T23:40:13.569Z,21.26694
2023-10-03T23:45:15.227Z,21.17006
2023-10-03T23:50:16.674Z,20.68757
2023-10-03T23:55:18.265Z,20.19015
